sensor_id;sensor_type;location;lat;lon;timestamp;P1;durP1;ratioP1;P2;durP2;ratioP2
35257;SDS011;21385;50.878;8.050;2022-12-10T00:01:10;2.53;;;2.42;;
35257;SDS011;21385;50.878;8.050;2022-12-10T00:03:37;2.30;;;2.15;;
35257;SDS011;21385;50.878;8.050;2022-12-10T00:06:04;2.58;;;2.35;;
35257;SDS011;21385;50.878;8.050;2022-12-10T00:08:33;2.42;;;2.25;;
35257;SDS011;21385;50.878;8.050;2022-12-10T00:10:59;3.65;;;3.38;;
35257;SDS011;21385;50.878;8.050;2022-12-10T00:13:27;5.15;;;3.00;;
35257;SDS011;21385;50.878;8.050;2022-12-10T00:15:52;3.40;;;3.20;;
35257;SDS011;21385;50.878;8.050;2022-12-10T00:18:18;3.95;;;2.95;;
35257;SDS011;21385;50.878;8.050;2022-12-10T00:20:44;3.78;;;3.47;;
35257;SDS011;21385;50.878;8.050;2022-12-10T00:23:09;2.50;;;2.30;;
35257;SDS011;21385;50.878;8.050;2022-12-10T00:25:35;3.33;;;3.00;;
35257;SDS011;21385;50.878;8.050;2022-12-10T00:28:00;2.85;;;2.53;;
35257;SDS011;21385;50.878;8.050;2022-12-10T00:30:26;3.58;;;2.53;;
35257;SDS011;21385;50.878;8.050;2022-12-10T00:32:51;3.33;;;3.10;;
35257;SDS011;21385;50.878;8.050;2022-12-10T00:35:17;2.63;;;2.42;;
35257;SDS011;21385;50.878;8.050;2022-12-10T00:37:42;4.53;;;3.05;;
35257;SDS011;21385;50.878;8.050;2022-12-10T00:40:08;2.13;;;1.95;;
35257;SDS011;21385;50.878;8.050;2022-12-10T00:42:35;3.00;;;2.80;;
35257;SDS011;21385;50.878;8.050;2022-12-10T00:45:02;2.22;;;2.13;;
35257;SDS011;21385;50.878;8.050;2022-12-10T00:47:28;3.80;;;2.95;;
35257;SDS011;21385;50.878;8.050;2022-12-10T00:49:54;2.95;;;2.78;;
35257;SDS011;21385;50.878;8.050;2022-12-10T00:52:19;3.30;;;2.75;;
35257;SDS011;21385;50.878;8.050;2022-12-10T00:54:45;3.72;;;3.40;;
35257;SDS011;21385;50.878;8.050;2022-12-10T00:57:10;2.40;;;2.20;;
35257;SDS011;21385;50.878;8.050;2022-12-10T00:59:36;2.95;;;1.80;;
35257;SDS011;21385;50.878;8.050;2022-12-10T01:02:02;2.33;;;2.13;;
35257;SDS011;21385;50.878;8.050;2022-12-10T01:04:27;1.58;;;1.48;;
35257;SDS011;21385;50.878;8.050;2022-12-10T01:06:53;3.42;;;2.90;;
35257;SDS011;21385;50.878;8.050;2022-12-10T01:09:20;3.95;;;2.67;;
35257;SDS011;21385;50.878;8.050;2022-12-10T01:11:51;3.97;;;2.15;;
35257;SDS011;21385;50.878;8.050;2022-12-10T01:14:22;3.30;;;3.10;;
35257;SDS011;21385;50.878;8.050;2022-12-10T01:16:53;1.58;;;1.52;;
35257;SDS011;21385;50.878;8.050;2022-12-10T01:19:19;2.53;;;2.40;;
35257;SDS011;21385;50.878;8.050;2022-12-10T01:21:45;2.47;;;2.28;;
35257;SDS011;21385;50.878;8.050;2022-12-10T01:24:15;2.15;;;2.05;;
35257;SDS011;21385;50.878;8.050;2022-12-10T01:26:41;2.33;;;2.20;;
35257;SDS011;21385;50.878;8.050;2022-12-10T01:29:06;2.88;;;2.67;;
35257;SDS011;21385;50.878;8.050;2022-12-10T01:31:33;3.22;;;2.63;;
35257;SDS011;21385;50.878;8.050;2022-12-10T01:34:02;1.65;;;1.45;;
35257;SDS011;21385;50.878;8.050;2022-12-10T01:36:34;2.63;;;2.45;;
35257;SDS011;21385;50.878;8.050;2022-12-10T01:39:06;2.60;;;2.40;;
35257;SDS011;21385;50.878;8.050;2022-12-10T01:41:35;1.92;;;1.83;;
35257;SDS011;21385;50.878;8.050;2022-12-10T01:44:58;3.50;;;2.90;;
35257;SDS011;21385;50.878;8.050;2022-12-10T01:46:55;2.33;;;2.15;;
35257;SDS011;21385;50.878;8.050;2022-12-10T01:49:23;1.70;;;1.60;;
35257;SDS011;21385;50.878;8.050;2022-12-10T01:51:52;2.25;;;2.15;;
35257;SDS011;21385;50.878;8.050;2022-12-10T01:59:53;3.47;;;3.17;;
35257;SDS011;21385;50.878;8.050;2022-12-10T02:07:41;2.95;;;2.75;;
35257;SDS011;21385;50.878;8.050;2022-12-10T02:10:17;2.88;;;2.67;;
35257;SDS011;21385;50.878;8.050;2022-12-10T02:15:27;8.10;;;2.00;;
35257;SDS011;21385;50.878;8.050;2022-12-10T02:17:59;2.05;;;1.95;;
35257;SDS011;21385;50.878;8.050;2022-12-10T02:20:38;3.55;;;2.58;;
35257;SDS011;21385;50.878;8.050;2022-12-10T02:23:05;2.45;;;2.25;;
35257;SDS011;21385;50.878;8.050;2022-12-10T02:25:37;2.90;;;2.70;;
35257;SDS011;21385;50.878;8.050;2022-12-10T02:28:23;3.25;;;3.05;;
35257;SDS011;21385;50.878;8.050;2022-12-10T02:31:11;2.88;;;2.72;;
35257;SDS011;21385;50.878;8.050;2022-12-10T02:33:43;3.85;;;2.45;;
35257;SDS011;21385;50.878;8.050;2022-12-10T02:36:14;1.98;;;1.83;;
35257;SDS011;21385;50.878;8.050;2022-12-10T02:38:41;1.90;;;1.83;;
35257;SDS011;21385;50.878;8.050;2022-12-10T02:41:10;6.65;;;3.05;;
35257;SDS011;21385;50.878;8.050;2022-12-10T02:43:46;4.13;;;2.55;;
35257;SDS011;21385;50.878;8.050;2022-12-10T02:46:17;3.58;;;3.28;;
35257;SDS011;21385;50.878;8.050;2022-12-10T02:48:43;4.57;;;2.30;;
35257;SDS011;21385;50.878;8.050;2022-12-10T02:51:11;2.75;;;2.53;;
35257;SDS011;21385;50.878;8.050;2022-12-10T02:53:43;1.75;;;1.65;;
35257;SDS011;21385;50.878;8.050;2022-12-10T02:58:56;3.83;;;3.42;;
35257;SDS011;21385;50.878;8.050;2022-12-10T03:01:36;1.90;;;1.80;;
35257;SDS011;21385;50.878;8.050;2022-12-10T03:04:18;5.93;;;2.72;;
35257;SDS011;21385;50.878;8.050;2022-12-10T03:06:51;2.05;;;1.92;;
35257;SDS011;21385;50.878;8.050;2022-12-10T03:09:28;1.85;;;1.75;;
35257;SDS011;21385;50.878;8.050;2022-12-10T03:12:02;1.67;;;1.58;;
35257;SDS011;21385;50.878;8.050;2022-12-10T03:14:33;6.78;;;3.30;;
35257;SDS011;21385;50.878;8.050;2022-12-10T03:17:00;17.25;;;1.80;;
35257;SDS011;21385;50.878;8.050;2022-12-10T03:19:31;2.85;;;2.60;;
35257;SDS011;21385;50.878;8.050;2022-12-10T03:22:02;1.98;;;1.88;;
35257;SDS011;21385;50.878;8.050;2022-12-10T03:24:30;1.42;;;1.33;;
35257;SDS011;21385;50.878;8.050;2022-12-10T03:26:57;1.98;;;1.83;;
35257;SDS011;21385;50.878;8.050;2022-12-10T03:29:24;3.28;;;3.08;;
35257;SDS011;21385;50.878;8.050;2022-12-10T03:31:54;1.83;;;1.73;;
35257;SDS011;21385;50.878;8.050;2022-12-10T03:34:20;1.90;;;1.80;;
35257;SDS011;21385;50.878;8.050;2022-12-10T03:36:46;1.65;;;1.55;;
35257;SDS011;21385;50.878;8.050;2022-12-10T03:39:13;1.63;;;1.53;;
35257;SDS011;21385;50.878;8.050;2022-12-10T03:41:40;0.60;;;0.60;;
35257;SDS011;21385;50.878;8.050;2022-12-10T03:44:05;2.40;;;2.20;;
35257;SDS011;21385;50.878;8.050;2022-12-10T03:46:31;2.00;;;1.90;;
35257;SDS011;21385;50.878;8.050;2022-12-10T03:48:58;2.25;;;2.15;;
35257;SDS011;21385;50.878;8.050;2022-12-10T03:51:24;1.77;;;1.50;;
35257;SDS011;21385;50.878;8.050;2022-12-10T03:53:50;2.73;;;2.53;;
35257;SDS011;21385;50.878;8.050;2022-12-10T03:56:18;1.70;;;1.60;;
35257;SDS011;21385;50.878;8.050;2022-12-10T03:58:45;1.35;;;1.27;;
35257;SDS011;21385;50.878;8.050;2022-12-10T04:01:11;2.03;;;1.73;;
35257;SDS011;21385;50.878;8.050;2022-12-10T04:03:37;1.60;;;1.50;;
35257;SDS011;21385;50.878;8.050;2022-12-10T04:06:04;1.70;;;1.60;;
35257;SDS011;21385;50.878;8.050;2022-12-10T04:08:32;1.77;;;1.58;;
35257;SDS011;21385;50.878;8.050;2022-12-10T04:11:02;1.92;;;1.83;;
35257;SDS011;21385;50.878;8.050;2022-12-10T04:13:35;3.37;;;2.33;;
35257;SDS011;21385;50.878;8.050;2022-12-10T04:16:20;2.60;;;2.35;;
35257;SDS011;21385;50.878;8.050;2022-12-10T04:18:53;2.67;;;2.47;;
35257;SDS011;21385;50.878;8.050;2022-12-10T04:21:19;1.92;;;1.48;;
35257;SDS011;21385;50.878;8.050;2022-12-10T05:01:08;1.13;;;1.13;;
35257;SDS011;21385;50.878;8.050;2022-12-10T05:03:35;1.58;;;1.48;;
35257;SDS011;21385;50.878;8.050;2022-12-10T05:06:02;3.13;;;2.08;;
35257;SDS011;21385;50.878;8.050;2022-12-10T05:08:29;0.93;;;0.93;;
35257;SDS011;21385;50.878;8.050;2022-12-10T05:10:55;1.42;;;1.38;;
35257;SDS011;21385;50.878;8.050;2022-12-10T05:13:25;8.47;;;2.60;;
35257;SDS011;21385;50.878;8.050;2022-12-10T05:15:50;1.77;;;1.58;;
35257;SDS011;21385;50.878;8.050;2022-12-10T05:18:16;1.95;;;1.85;;
35257;SDS011;21385;50.878;8.050;2022-12-10T05:20:41;3.20;;;3.00;;
35257;SDS011;21385;50.878;8.050;2022-12-10T05:23:07;2.78;;;2.58;;
35257;SDS011;21385;50.878;8.050;2022-12-10T05:26:02;2.03;;;1.83;;
35257;SDS011;21385;50.878;8.050;2022-12-10T05:28:44;1.90;;;1.80;;
35257;SDS011;21385;50.878;8.050;2022-12-10T05:31:12;1.75;;;1.65;;
35257;SDS011;21385;50.878;8.050;2022-12-10T05:33:42;3.60;;;2.45;;
35257;SDS011;21385;50.878;8.050;2022-12-10T05:36:09;1.83;;;1.73;;
35257;SDS011;21385;50.878;8.050;2022-12-10T05:38:36;1.98;;;1.75;;
35257;SDS011;21385;50.878;8.050;2022-12-10T05:41:03;1.88;;;1.55;;
35257;SDS011;21385;50.878;8.050;2022-12-10T05:43:30;1.75;;;1.65;;
35257;SDS011;21385;50.878;8.050;2022-12-10T05:46:02;2.00;;;1.90;;
35257;SDS011;21385;50.878;8.050;2022-12-10T05:48:30;2.73;;;2.07;;
35257;SDS011;21385;50.878;8.050;2022-12-10T05:50:56;1.25;;;1.25;;
35257;SDS011;21385;50.878;8.050;2022-12-10T05:53:22;2.22;;;2.03;;
35257;SDS011;21385;50.878;8.050;2022-12-10T05:55:58;2.43;;;2.27;;
35257;SDS011;21385;50.878;8.050;2022-12-10T05:58:28;5.30;;;2.70;;
35257;SDS011;21385;50.878;8.050;2022-12-10T06:00:55;1.20;;;1.20;;
35257;SDS011;21385;50.878;8.050;2022-12-10T06:03:21;0.75;;;0.75;;
35257;SDS011;21385;50.878;8.050;2022-12-10T06:05:47;1.50;;;1.25;;
35257;SDS011;21385;50.878;8.050;2022-12-10T06:08:13;2.53;;;2.30;;
35257;SDS011;21385;50.878;8.050;2022-12-10T06:10:39;5.60;;;2.40;;
35257;SDS011;21385;50.878;8.050;2022-12-10T06:13:05;2.70;;;2.50;;
35257;SDS011;21385;50.878;8.050;2022-12-10T06:15:30;1.20;;;1.20;;
35257;SDS011;21385;50.878;8.050;2022-12-10T06:17:57;0.90;;;0.90;;
35257;SDS011;21385;50.878;8.050;2022-12-10T06:20:24;1.58;;;1.48;;
35257;SDS011;21385;50.878;8.050;2022-12-10T06:22:50;2.83;;;2.63;;
35257;SDS011;21385;50.878;8.050;2022-12-10T06:25:16;2.63;;;2.38;;
35257;SDS011;21385;50.878;8.050;2022-12-10T06:27:42;3.37;;;2.43;;
35257;SDS011;21385;50.878;8.050;2022-12-10T06:30:08;2.43;;;2.30;;
35257;SDS011;21385;50.878;8.050;2022-12-10T06:32:34;2.93;;;2.73;;
35257;SDS011;21385;50.878;8.050;2022-12-10T06:35:00;2.08;;;1.98;;
35257;SDS011;21385;50.878;8.050;2022-12-10T06:37:26;2.30;;;2.13;;
35257;SDS011;21385;50.878;8.050;2022-12-10T06:39:52;3.10;;;1.50;;
35257;SDS011;21385;50.878;8.050;2022-12-10T06:42:18;1.80;;;1.70;;
35257;SDS011;21385;50.878;8.050;2022-12-10T06:44:44;1.73;;;1.63;;
35257;SDS011;21385;50.878;8.050;2022-12-10T06:47:10;2.22;;;2.13;;
35257;SDS011;21385;50.878;8.050;2022-12-10T06:49:36;1.23;;;1.23;;
35257;SDS011;21385;50.878;8.050;2022-12-10T07:13:35;0.70;;;0.70;;
35257;SDS011;21385;50.878;8.050;2022-12-10T07:16:01;2.97;;;2.77;;
35257;SDS011;21385;50.878;8.050;2022-12-10T07:24:33;1.70;;;1.60;;
35257;SDS011;21385;50.878;8.050;2022-12-10T07:26:59;2.40;;;2.20;;
35257;SDS011;21385;50.878;8.050;2022-12-10T07:29:25;2.73;;;1.57;;
35257;SDS011;21385;50.878;8.050;2022-12-10T07:31:51;1.40;;;1.30;;
35257;SDS011;21385;50.878;8.050;2022-12-10T07:34:19;1.50;;;1.40;;
35257;SDS011;21385;50.878;8.050;2022-12-10T07:36:45;2.97;;;2.67;;
35257;SDS011;21385;50.878;8.050;2022-12-10T07:39:12;7.23;;;3.00;;
35257;SDS011;21385;50.878;8.050;2022-12-10T07:41:42;4.95;;;3.00;;
35257;SDS011;21385;50.878;8.050;2022-12-10T07:44:10;1.60;;;1.50;;
35257;SDS011;21385;50.878;8.050;2022-12-10T07:46:37;1.80;;;1.70;;
35257;SDS011;21385;50.878;8.050;2022-12-10T07:49:03;2.23;;;2.03;;
35257;SDS011;21385;50.878;8.050;2022-12-10T07:51:29;1.37;;;1.30;;
35257;SDS011;21385;50.878;8.050;2022-12-10T07:53:56;1.50;;;1.40;;
35257;SDS011;21385;50.878;8.050;2022-12-10T07:56:22;1.63;;;1.60;;
35257;SDS011;21385;50.878;8.050;2022-12-10T07:58:49;1.07;;;1.07;;
35257;SDS011;21385;50.878;8.050;2022-12-10T08:01:16;2.73;;;2.17;;
35257;SDS011;21385;50.878;8.050;2022-12-10T08:03:42;2.57;;;2.10;;
35257;SDS011;21385;50.878;8.050;2022-12-10T08:06:10;13.23;;;3.10;;
35257;SDS011;21385;50.878;8.050;2022-12-10T08:08:36;6.17;;;2.47;;
35257;SDS011;21385;50.878;8.050;2022-12-10T08:11:03;2.20;;;2.00;;
35257;SDS011;21385;50.878;8.050;2022-12-10T08:13:29;3.08;;;2.78;;
35257;SDS011;21385;50.878;8.050;2022-12-10T08:18:28;3.30;;;3.10;;
35257;SDS011;21385;50.878;8.050;2022-12-10T08:34:23;3.50;;;2.70;;
35257;SDS011;21385;50.878;8.050;2022-12-10T08:36:49;4.60;;;4.23;;
35257;SDS011;21385;50.878;8.050;2022-12-10T08:39:15;3.25;;;2.63;;
35257;SDS011;21385;50.878;8.050;2022-12-10T08:41:42;3.30;;;3.10;;
35257;SDS011;21385;50.878;8.050;2022-12-10T08:44:09;3.33;;;2.88;;
35257;SDS011;21385;50.878;8.050;2022-12-10T08:46:35;4.38;;;3.97;;
35257;SDS011;21385;50.878;8.050;2022-12-10T08:49:01;1.95;;;1.85;;
35257;SDS011;21385;50.878;8.050;2022-12-10T08:51:27;5.43;;;4.30;;
35257;SDS011;21385;50.878;8.050;2022-12-10T08:53:53;3.13;;;2.83;;
35257;SDS011;21385;50.878;8.050;2022-12-10T08:56:19;3.42;;;3.20;;
35257;SDS011;21385;50.878;8.050;2022-12-10T08:58:45;6.97;;;5.40;;
35257;SDS011;21385;50.878;8.050;2022-12-10T09:01:11;2.88;;;2.67;;
35257;SDS011;21385;50.878;8.050;2022-12-10T09:03:39;5.35;;;4.95;;
35257;SDS011;21385;50.878;8.050;2022-12-10T09:06:05;3.83;;;3.53;;
35257;SDS011;21385;50.878;8.050;2022-12-10T09:08:33;4.18;;;3.42;;
35257;SDS011;21385;50.878;8.050;2022-12-10T09:11:04;5.35;;;4.60;;
35257;SDS011;21385;50.878;8.050;2022-12-10T09:13:40;3.25;;;3.05;;
35257;SDS011;21385;50.878;8.050;2022-12-10T09:16:06;4.00;;;3.78;;
35257;SDS011;21385;50.878;8.050;2022-12-10T09:18:31;4.72;;;4.35;;
35257;SDS011;21385;50.878;8.050;2022-12-10T09:20:57;4.22;;;3.80;;
35257;SDS011;21385;50.878;8.050;2022-12-10T09:23:23;6.38;;;5.15;;
35257;SDS011;21385;50.878;8.050;2022-12-10T09:25:48;4.30;;;4.00;;
35257;SDS011;21385;50.878;8.050;2022-12-10T09:28:14;10.77;;;5.75;;
35257;SDS011;21385;50.878;8.050;2022-12-10T09:30:40;1.90;;;1.80;;
35257;SDS011;21385;50.878;8.050;2022-12-10T09:33:05;7.65;;;4.97;;
35257;SDS011;21385;50.878;8.050;2022-12-10T09:35:31;4.93;;;4.15;;
35257;SDS011;21385;50.878;8.050;2022-12-10T09:37:57;5.65;;;3.35;;
35257;SDS011;21385;50.878;8.050;2022-12-10T09:40:29;5.32;;;4.82;;
35257;SDS011;21385;50.878;8.050;2022-12-10T09:51:31;20.48;;;5.40;;
35257;SDS011;21385;50.878;8.050;2022-12-10T09:54:01;3.60;;;3.30;;
35257;SDS011;21385;50.878;8.050;2022-12-10T09:56:29;8.20;;;5.10;;
35257;SDS011;21385;50.878;8.050;2022-12-10T09:59:02;5.05;;;4.68;;
35257;SDS011;21385;50.878;8.050;2022-12-10T10:01:40;6.43;;;4.63;;
35257;SDS011;21385;50.878;8.050;2022-12-10T10:04:08;11.60;;;3.58;;
35257;SDS011;21385;50.878;8.050;2022-12-10T10:06:34;4.20;;;3.95;;
35257;SDS011;21385;50.878;8.050;2022-12-10T10:09:00;2.60;;;2.50;;
35257;SDS011;21385;50.878;8.050;2022-12-10T10:11:29;3.67;;;3.38;;
35257;SDS011;21385;50.878;8.050;2022-12-10T10:14:01;10.70;;;5.30;;
35257;SDS011;21385;50.878;8.050;2022-12-10T10:16:39;4.85;;;4.38;;
35257;SDS011;21385;50.878;8.050;2022-12-10T10:19:17;5.43;;;4.32;;
35257;SDS011;21385;50.878;8.050;2022-12-10T10:21:46;4.35;;;4.13;;
35257;SDS011;21385;50.878;8.050;2022-12-10T10:24:15;5.57;;;5.05;;
35257;SDS011;21385;50.878;8.050;2022-12-10T10:26:43;4.38;;;4.10;;
35257;SDS011;21385;50.878;8.050;2022-12-10T10:29:14;9.10;;;5.57;;
35257;SDS011;21385;50.878;8.050;2022-12-10T10:31:43;5.95;;;5.50;;
35257;SDS011;21385;50.878;8.050;2022-12-10T10:34:22;5.22;;;4.82;;
35257;SDS011;21385;50.878;8.050;2022-12-10T10:36:54;6.88;;;6.28;;
35257;SDS011;21385;50.878;8.050;2022-12-10T10:41:50;7.47;;;5.15;;
35257;SDS011;21385;50.878;8.050;2022-12-10T10:44:19;6.53;;;5.88;;
35257;SDS011;21385;50.878;8.050;2022-12-10T10:46:47;8.35;;;5.15;;
35257;SDS011;21385;50.878;8.050;2022-12-10T10:49:22;7.40;;;6.77;;
35257;SDS011;21385;50.878;8.050;2022-12-10T10:52:15;4.72;;;4.40;;
35257;SDS011;21385;50.878;8.050;2022-12-10T10:54:45;10.65;;;5.60;;
35257;SDS011;21385;50.878;8.050;2022-12-10T10:57:23;6.80;;;5.83;;
35257;SDS011;21385;50.878;8.050;2022-12-10T10:59:52;3.58;;;3.08;;
35257;SDS011;21385;50.878;8.050;2022-12-10T11:02:29;4.15;;;3.75;;
35257;SDS011;21385;50.878;8.050;2022-12-10T11:04:57;9.43;;;4.85;;
35257;SDS011;21385;50.878;8.050;2022-12-10T11:07:39;7.85;;;5.88;;
35257;SDS011;21385;50.878;8.050;2022-12-10T11:10:19;5.40;;;5.03;;
35257;SDS011;21385;50.878;8.050;2022-12-10T11:12:56;21.35;;;8.18;;
35257;SDS011;21385;50.878;8.050;2022-12-10T11:15:32;9.65;;;6.65;;
35257;SDS011;21385;50.878;8.050;2022-12-10T11:17:58;11.80;;;6.40;;
35257;SDS011;21385;50.878;8.050;2022-12-10T11:23:00;4.50;;;4.20;;
35257;SDS011;21385;50.878;8.050;2022-12-10T11:25:35;12.30;;;6.90;;
35257;SDS011;21385;50.878;8.050;2022-12-10T11:28:08;5.72;;;5.30;;
35257;SDS011;21385;50.878;8.050;2022-12-10T11:30:40;3.53;;;3.28;;
35257;SDS011;21385;50.878;8.050;2022-12-10T11:33:20;14.80;;;6.82;;
35257;SDS011;21385;50.878;8.050;2022-12-10T11:36:06;7.50;;;6.80;;
35257;SDS011;21385;50.878;8.050;2022-12-10T11:42:04;5.68;;;4.45;;
35257;SDS011;21385;50.878;8.050;2022-12-10T11:47:25;4.90;;;4.50;;
35257;SDS011;21385;50.878;8.050;2022-12-10T12:00:39;4.90;;;4.60;;
35257;SDS011;21385;50.878;8.050;2022-12-10T12:03:28;13.65;;;4.45;;
35257;SDS011;21385;50.878;8.050;2022-12-10T12:11:34;4.82;;;4.55;;
35257;SDS011;21385;50.878;8.050;2022-12-10T12:19:51;5.75;;;4.47;;
35257;SDS011;21385;50.878;8.050;2022-12-10T12:24:54;4.57;;;3.95;;
35257;SDS011;21385;50.878;8.050;2022-12-10T12:27:31;3.33;;;3.13;;
35257;SDS011;21385;50.878;8.050;2022-12-10T12:30:16;5.13;;;4.63;;
35257;SDS011;21385;50.878;8.050;2022-12-10T12:32:50;6.03;;;5.63;;
35257;SDS011;21385;50.878;8.050;2022-12-10T12:35:52;5.82;;;5.32;;
35257;SDS011;21385;50.878;8.050;2022-12-10T12:38:33;6.15;;;3.88;;
35257;SDS011;21385;50.878;8.050;2022-12-10T12:41:15;5.18;;;4.70;;
35257;SDS011;21385;50.878;8.050;2022-12-10T12:44:00;4.00;;;3.53;;
35257;SDS011;21385;50.878;8.050;2022-12-10T12:46:50;4.57;;;4.28;;
35257;SDS011;21385;50.878;8.050;2022-12-10T12:52:05;6.03;;;5.35;;
35257;SDS011;21385;50.878;8.050;2022-12-10T12:54:43;6.85;;;5.10;;
35257;SDS011;21385;50.878;8.050;2022-12-10T13:00:05;3.40;;;3.10;;
35257;SDS011;21385;50.878;8.050;2022-12-10T13:02:53;8.85;;;5.75;;
35257;SDS011;21385;50.878;8.050;2022-12-10T13:05:22;4.28;;;4.03;;
35257;SDS011;21385;50.878;8.050;2022-12-10T13:10:45;4.60;;;4.30;;
35257;SDS011;21385;50.878;8.050;2022-12-10T13:13:33;6.45;;;5.85;;
35257;SDS011;21385;50.878;8.050;2022-12-10T13:25:09;5.07;;;4.57;;
35257;SDS011;21385;50.878;8.050;2022-12-10T13:29:45;6.70;;;6.13;;
35257;SDS011;21385;50.878;8.050;2022-12-10T13:32:15;15.65;;;6.95;;
35257;SDS011;21385;50.878;8.050;2022-12-10T13:37:32;6.07;;;4.78;;
35257;SDS011;21385;50.878;8.050;2022-12-10T13:40:22;3.65;;;3.45;;
35257;SDS011;21385;50.878;8.050;2022-12-10T13:42:55;4.55;;;4.13;;
35257;SDS011;21385;50.878;8.050;2022-12-10T13:45:42;2.22;;;2.13;;
35257;SDS011;21385;50.878;8.050;2022-12-10T13:48:28;4.80;;;4.45;;
35257;SDS011;21385;50.878;8.050;2022-12-10T14:01:16;4.72;;;4.32;;
35257;SDS011;21385;50.878;8.050;2022-12-10T14:07:16;4.77;;;4.37;;
35257;SDS011;21385;50.878;8.050;2022-12-10T14:09:52;13.63;;;6.47;;
35257;SDS011;21385;50.878;8.050;2022-12-10T14:12:54;3.90;;;3.60;;
35257;SDS011;21385;50.878;8.050;2022-12-10T14:15:16;6.38;;;4.55;;
35257;SDS011;21385;50.878;8.050;2022-12-10T14:17:49;6.70;;;3.67;;
35257;SDS011;21385;50.878;8.050;2022-12-10T14:20:18;7.63;;;5.78;;
35257;SDS011;21385;50.878;8.050;2022-12-10T14:22:52;5.93;;;4.15;;
35257;SDS011;21385;50.878;8.050;2022-12-10T14:25:20;2.72;;;2.55;;
35257;SDS011;21385;50.878;8.050;2022-12-10T14:27:49;3.38;;;3.08;;
35257;SDS011;21385;50.878;8.050;2022-12-10T14:30:23;4.88;;;4.45;;
35257;SDS011;21385;50.878;8.050;2022-12-10T14:32:52;3.40;;;3.10;;
35257;SDS011;21385;50.878;8.050;2022-12-10T14:35:21;2.72;;;2.53;;
35257;SDS011;21385;50.878;8.050;2022-12-10T14:37:49;2.95;;;2.75;;
35257;SDS011;21385;50.878;8.050;2022-12-10T14:40:22;3.63;;;3.42;;
35257;SDS011;21385;50.878;8.050;2022-12-10T14:42:50;7.40;;;4.72;;
35257;SDS011;21385;50.878;8.050;2022-12-10T14:45:24;4.57;;;4.25;;
35257;SDS011;21385;50.878;8.050;2022-12-10T14:47:56;4.68;;;3.40;;
35257;SDS011;21385;50.878;8.050;2022-12-10T14:50:24;2.67;;;2.58;;
35257;SDS011;21385;50.878;8.050;2022-12-10T14:52:53;14.60;;;4.85;;
35257;SDS011;21385;50.878;8.050;2022-12-10T14:55:19;3.58;;;3.28;;
35257;SDS011;21385;50.878;8.050;2022-12-10T14:57:49;9.13;;;5.07;;
35257;SDS011;21385;50.878;8.050;2022-12-10T15:00:22;6.40;;;5.78;;
35257;SDS011;21385;50.878;8.050;2022-12-10T15:02:51;3.85;;;3.55;;
35257;SDS011;21385;50.878;8.050;2022-12-10T15:05:29;4.13;;;3.63;;
35257;SDS011;21385;50.878;8.050;2022-12-10T15:10:24;4.70;;;4.30;;
35257;SDS011;21385;50.878;8.050;2022-12-10T15:12:57;2.45;;;2.35;;
35257;SDS011;21385;50.878;8.050;2022-12-10T15:20:36;4.00;;;3.42;;
35257;SDS011;21385;50.878;8.050;2022-12-10T15:28:25;3.60;;;3.22;;
35257;SDS011;21385;50.878;8.050;2022-12-10T15:33:49;2.83;;;2.63;;
35257;SDS011;21385;50.878;8.050;2022-12-10T15:36:23;2.92;;;2.72;;
35257;SDS011;21385;50.878;8.050;2022-12-10T15:39:10;4.28;;;3.95;;
35257;SDS011;21385;50.878;8.050;2022-12-10T15:41:43;14.30;;;9.85;;
35257;SDS011;21385;50.878;8.050;2022-12-10T15:47:03;6.30;;;5.68;;
35257;SDS011;21385;50.878;8.050;2022-12-10T15:49:45;5.22;;;4.85;;
35257;SDS011;21385;50.878;8.050;2022-12-10T15:52:11;6.63;;;6.10;;
35257;SDS011;21385;50.878;8.050;2022-12-10T15:54:39;22.13;;;8.30;;
35257;SDS011;21385;50.878;8.050;2022-12-10T15:57:17;4.72;;;4.32;;
35257;SDS011;21385;50.878;8.050;2022-12-10T15:59:47;4.05;;;3.80;;
35257;SDS011;21385;50.878;8.050;2022-12-10T16:04:52;3.75;;;3.47;;
35257;SDS011;21385;50.878;8.050;2022-12-10T16:07:18;4.80;;;4.40;;
35257;SDS011;21385;50.878;8.050;2022-12-10T16:09:44;3.58;;;3.33;;
35257;SDS011;21385;50.878;8.050;2022-12-10T16:12:11;5.63;;;4.20;;
35257;SDS011;21385;50.878;8.050;2022-12-10T16:14:42;4.32;;;3.42;;
35257;SDS011;21385;50.878;8.050;2022-12-10T16:17:12;4.40;;;4.00;;
35257;SDS011;21385;50.878;8.050;2022-12-10T16:19:37;5.53;;;4.03;;
35257;SDS011;21385;50.878;8.050;2022-12-10T16:22:04;3.40;;;3.17;;
35257;SDS011;21385;50.878;8.050;2022-12-10T16:24:30;3.83;;;3.47;;
35257;SDS011;21385;50.878;8.050;2022-12-10T16:26:55;5.03;;;2.75;;
35257;SDS011;21385;50.878;8.050;2022-12-10T16:29:21;3.42;;;2.67;;
35257;SDS011;21385;50.878;8.050;2022-12-10T16:31:47;2.30;;;2.15;;
35257;SDS011;21385;50.878;8.050;2022-12-10T16:34:12;3.00;;;2.83;;
35257;SDS011;21385;50.878;8.050;2022-12-10T16:36:38;5.85;;;3.40;;
35257;SDS011;21385;50.878;8.050;2022-12-10T16:39:03;2.03;;;1.92;;
35257;SDS011;21385;50.878;8.050;2022-12-10T16:41:30;4.43;;;3.67;;
35257;SDS011;21385;50.878;8.050;2022-12-10T16:43:56;3.38;;;3.10;;
35257;SDS011;21385;50.878;8.050;2022-12-10T16:46:21;3.05;;;2.85;;
35257;SDS011;21385;50.878;8.050;2022-12-10T16:48:47;2.30;;;2.20;;
35257;SDS011;21385;50.878;8.050;2022-12-10T16:51:14;3.08;;;2.88;;
35257;SDS011;21385;50.878;8.050;2022-12-10T16:53:45;2.83;;;2.63;;
35257;SDS011;21385;50.878;8.050;2022-12-10T16:56:12;2.15;;;1.95;;
35257;SDS011;21385;50.878;8.050;2022-12-10T16:58:39;21.48;;;4.30;;
35257;SDS011;21385;50.878;8.050;2022-12-10T17:01:07;6.85;;;4.22;;
35257;SDS011;21385;50.878;8.050;2022-12-10T17:03:46;7.10;;;5.00;;
35257;SDS011;21385;50.878;8.050;2022-12-10T17:06:12;4.45;;;3.97;;
35257;SDS011;21385;50.878;8.050;2022-12-10T17:08:38;3.45;;;3.25;;
35257;SDS011;21385;50.878;8.050;2022-12-10T17:11:09;5.13;;;4.43;;
35257;SDS011;21385;50.878;8.050;2022-12-10T17:14:29;5.55;;;4.90;;
35257;SDS011;21385;50.878;8.050;2022-12-10T17:17:03;3.33;;;3.13;;
35257;SDS011;21385;50.878;8.050;2022-12-10T17:19:36;4.38;;;4.07;;
35257;SDS011;21385;50.878;8.050;2022-12-10T17:22:04;5.10;;;4.53;;
35257;SDS011;21385;50.878;8.050;2022-12-10T17:24:30;5.35;;;4.78;;
35257;SDS011;21385;50.878;8.050;2022-12-10T17:27:02;8.23;;;5.75;;
35257;SDS011;21385;50.878;8.050;2022-12-10T17:29:34;3.78;;;3.10;;
35257;SDS011;21385;50.878;8.050;2022-12-10T17:32:03;4.95;;;4.57;;
35257;SDS011;21385;50.878;8.050;2022-12-10T17:34:30;5.03;;;4.63;;
35257;SDS011;21385;50.878;8.050;2022-12-10T17:36:55;5.78;;;5.38;;
35257;SDS011;21385;50.878;8.050;2022-12-10T17:39:21;5.03;;;4.57;;
35257;SDS011;21385;50.878;8.050;2022-12-10T17:41:51;4.90;;;4.50;;
35257;SDS011;21385;50.878;8.050;2022-12-10T17:44:17;3.72;;;3.13;;
35257;SDS011;21385;50.878;8.050;2022-12-10T17:46:43;5.68;;;4.90;;
35257;SDS011;21385;50.878;8.050;2022-12-10T17:49:11;3.58;;;3.10;;
35257;SDS011;21385;50.878;8.050;2022-12-10T17:51:39;3.72;;;3.42;;
35257;SDS011;21385;50.878;8.050;2022-12-10T17:54:05;4.55;;;4.25;;
35257;SDS011;21385;50.878;8.050;2022-12-10T17:56:31;5.40;;;3.10;;
35257;SDS011;21385;50.878;8.050;2022-12-10T17:58:56;2.72;;;2.55;;
35257;SDS011;21385;50.878;8.050;2022-12-10T18:01:22;4.05;;;3.75;;
35257;SDS011;21385;50.878;8.050;2022-12-10T18:03:51;3.33;;;3.03;;
35257;SDS011;21385;50.878;8.050;2022-12-10T18:06:18;2.83;;;2.40;;
35257;SDS011;21385;50.878;8.050;2022-12-10T18:08:46;3.15;;;2.95;;
35257;SDS011;21385;50.878;8.050;2022-12-10T18:11:14;2.53;;;2.35;;
35257;SDS011;21385;50.878;8.050;2022-12-10T18:13:41;2.92;;;2.72;;
35257;SDS011;21385;50.878;8.050;2022-12-10T18:16:15;4.13;;;3.72;;
35257;SDS011;21385;50.878;8.050;2022-12-10T18:18:42;2.65;;;2.45;;
35257;SDS011;21385;50.878;8.050;2022-12-10T18:21:08;2.67;;;2.53;;
35257;SDS011;21385;50.878;8.050;2022-12-10T18:23:37;2.33;;;2.22;;